Time;durP1;ratioP1;P1;durP2;ratioP2;P2;SDS_P1;SDS_P2;PMS_P1;PMS_P2;Temp;Humidity;BMP_temperature;BMP_pressure;BME280_temperature;BME280_humidity;BME280_pressure;Samples;Min_cycle;Max_cycle;Signal;HPM_P1;HPM_P2
2021/05/31 00:00:21;;;;;;;4.00;2.20;;;;;;;15.27;75.62;100735.95;1769648;81;20878;-69
2021/05/31 00:02:48;;;;;;;2.17;2.00;;;;;;;15.21;75.79;100731.62;1769541;81;20874;-70
2021/05/31 00:05:17;;;;;;;3.22;3.02;;;;;;;15.13;75.71;100732.20;1769523;81;20950;-70
2021/05/31 00:07:45;;;;;;;4.17;2.00;;;;;;;15.09;76.13;100739.50;1769568;81;21124;-70
2021/05/31 00:10:13;;;;;;;4.92;2.15;;;;;;;15.07;76.30;100739.27;1769413;81;20973;-71
2021/05/31 00:12:40;;;;;;;6.30;2.62;;;;;;;15.04;76.42;100734.23;1769688;81;20874;-69
2021/05/31 00:15:08;;;;;;;3.98;2.58;;;;;;;15.04;76.42;100734.23;1756062;79;21029;-69
2021/05/31 00:17:35;;;;;;;6.58;2.47;;;;;;;15.02;76.16;100733.50;1739120;82;20969;-70
2021/05/31 00:20:06;;;;;;;4.30;2.75;;;;;;;15.02;76.16;100733.50;1739117;82;21065;-70
2021/05/31 00:22:33;;;;;;;4.78;2.40;;;;;;;15.00;76.42;100740.22;1738898;82;20918;-70
2021/05/31 00:24:59;;;;;;;3.60;2.12;;;;;;;14.97;76.31;100737.83;1739193;82;20927;-70
2021/05/31 00:27:26;;;;;;;3.25;2.27;;;;;;;14.95;76.17;100744.19;1739080;82;20905;-70
2021/05/31 00:29:53;;;;;;;6.03;2.70;;;;;;;14.92;76.15;100743.46;1739051;82;21621;-70
2021/05/31 00:32:21;;;;;;;6.47;2.50;;;;;;;14.92;76.32;100739.98;1739147;82;21487;-70
2021/05/31 00:34:50;;;;;;;2.83;2.30;;;;;;;14.90;76.41;100735.30;1738910;82;20902;-70
2021/05/31 00:37:17;;;;;;;4.42;2.95;;;;;;;14.89;76.45;100737.56;1739026;82;20882;-70
2021/05/31 00:39:44;;;;;;;5.40;3.08;;;;;;;14.87;76.47;100742.11;1738974;82;21033;-71
2021/05/31 00:42:11;;;;;;;3.30;2.37;;;;;;;14.81;76.65;100738.64;1739059;82;21435;-71
2021/05/31 00:44:39;;;;;;;2.80;2.55;;;;;;;14.81;76.65;100738.64;1739136;82;21486;-70
2021/05/31 00:47:06;;;;;;;2.72;2.50;;;;;;;14.78;76.59;100737.05;1738889;82;21009;-69
2021/05/31 00:49:38;;;;;;;6.75;2.90;;;;;;;14.74;76.59;100732.98;1739042;82;20982;-70
2021/05/31 00:52:07;;;;;;;4.85;2.77;;;;;;;14.71;76.70;100737.99;1739080;82;20926;-70
2021/05/31 00:54:35;;;;;;;4.72;2.12;;;;;;;14.68;76.73;100737.40;1739195;81;21005;-71
2021/05/31 00:57:03;;;;;;;4.42;2.10;;;;;;;14.68;76.69;100736.08;1739086;82;21747;-71
2021/05/31 00:59:30;;;;;;;2.55;2.22;;;;;;;14.61;76.68;100733.55;1738947;82;20902;-71
2021/05/31 01:01:57;;;;;;;3.20;2.72;;;;;;;14.61;77.12;100736.19;1738987;81;20914;-71
2021/05/31 01:04:24;;;;;;;3.70;2.90;;;;;;;14.62;77.22;100730.77;1739022;82;21008;-71
2021/05/31 01:06:54;;;;;;;3.60;2.72;;;;;;;14.62;77.22;100730.77;1739073;81;20921;-71
2021/05/31 01:09:32;;;;;;;3.95;3.58;;;;;;;14.60;77.67;100737.12;1739221;82;20985;-71
2021/05/31 01:12:22;;;;;;;3.60;2.80;;;;;;;14.60;77.67;100737.12;1739073;82;20934;-71
2021/05/31 01:15:18;;;;;;;6.97;3.10;;;;;;;14.67;77.37;100740.53;1739158;82;20938;-69
2021/05/31 01:18:22;;;;;;;3.27;2.80;;;;;;;14.67;77.37;100740.53;1738838;81;21017;-70
2021/05/31 01:20:59;;;;;;;3.80;2.65;;;;;;;14.69;77.20;100745.18;1739122;82;20910;-69
2021/05/31 01:23:28;;;;;;;3.45;3.15;;;;;;;14.67;77.11;100746.27;1738883;81;21087;-69
2021/05/31 01:26:16;;;;;;;4.17;3.83;;;;;;;14.66;77.24;100745.91;1738937;81;20954;-71
2021/05/31 01:29:07;;;;;;;4.10;3.10;;;;;;;14.67;77.37;100741.84;1739029;82;21053;-70
2021/05/31 01:31:45;;;;;;;5.40;2.95;;;;;;;14.70;77.29;100739.45;1738687;82;20926;-70
2021/05/31 01:34:12;;;;;;;3.98;3.25;;;;;;;14.75;77.35;100743.06;1739100;82;20902;-70
2021/05/31 01:37:55;;;;;;;4.10;3.80;;;;;;;14.86;77.23;100746.56;1815515;79;23095;-70
2021/05/31 01:40:23;;;;;;;5.33;3.87;;;;;;;14.87;77.07;100744.75;1788836;80;20929;-72
2021/05/31 01:42:55;;;;;;;5.10;3.85;;;;;;;14.89;77.09;100748.95;1788754;80;21486;-70
2021/05/31 01:45:22;;;;;;;4.03;3.40;;;;;;;14.89;77.09;100748.95;1758799;80;20921;-70
2021/05/31 01:47:49;;;;;;;4.58;3.77;;;;;;;14.89;77.04;100747.63;1788817;80;20902;-70
2021/05/31 01:50:16;;;;;;;5.03;3.95;;;;;;;14.90;77.15;100744.54;1788734;80;21291;-70
2021/05/31 01:52:45;;;;;;;5.62;3.95;;;;;;;14.92;77.10;100745.27;1788710;80;20979;-70
2021/05/31 01:55:13;;;;;;;5.50;3.72;;;;;;;14.93;76.92;100742.97;1788757;80;21065;-70
2021/05/31 01:57:43;;;;;;;4.85;4.12;;;;;;;14.94;76.79;100736.75;1788664;80;21442;-71
2021/05/31 02:00:11;;;;;;;4.60;3.67;;;;;;;14.91;77.22;100745.72;1788698;80;20934;-72
2021/05/31 02:02:40;;;;;;;6.85;4.60;;;;;;;14.91;77.22;100745.72;1788645;80;20967;-72
2021/05/31 02:05:08;;;;;;;6.12;4.05;;;;;;;14.93;76.90;100742.48;1788724;80;21016;-70
2021/05/31 02:07:38;;;;;;;4.92;3.85;;;;;;;14.96;76.85;100734.80;1788641;80;21854;-69
2021/05/31 02:10:07;;;;;;;5.80;4.00;;;;;;;14.99;76.78;100740.36;1788659;80;20922;-70
2021/05/31 02:12:46;;;;;;;4.12;3.52;;;;;;;14.99;76.92;100742.52;1788706;80;20898;-71
2021/05/31 02:15:14;;;;;;;4.33;3.60;;;;;;;14.98;76.91;100739.98;1785912;80;21423;-71
2021/05/31 02:17:53;;;;;;;4.72;4.00;;;;;;;14.96;76.98;100747.17;1788649;80;20933;-71
2021/05/31 02:20:20;;;;;;;7.15;3.72;;;;;;;14.93;77.01;100750.89;1755140;80;20949;-70
2021/05/31 02:22:56;;;;;;;7.72;4.90;;;;;;;14.90;76.82;100756.42;1788696;80;21000;-71
2021/05/31 02:25:22;;;;;;;5.47;3.83;;;;;;;14.98;77.02;100761.11;1787957;80;20894;-70
2021/05/31 02:27:49;;;;;;;4.12;3.70;;;;;;;15.02;77.08;100765.20;1788660;80;20997;-70
2021/05/31 02:30:18;;;;;;;5.37;4.53;;;;;;;15.01;76.94;100760.89;1788759;80;22038;-71
2021/05/31 02:32:59;;;;;;;9.50;3.80;;;;;;;14.98;77.25;100763.75;1788643;80;21088;-71
2021/05/31 02:35:28;;;;;;;4.58;4.08;;;;;;;15.03;77.37;100764.23;1788722;80;20898;-70
2021/05/31 02:37:56;;;;;;;4.17;3.77;;;;;;;15.03;77.37;100764.23;1781552;80;20949;-71
2021/05/31 02:40:23;;;;;;;4.40;4.00;;;;;;;15.12;77.14;100764.88;1780905;80;20942;-70
2021/05/31 02:42:54;;;;;;;5.65;3.37;;;;;;;15.20;77.08;100772.19;1781084;80;20934;-73
2021/05/31 02:45:23;;;;;;;4.03;3.72;;;;;;;15.25;76.90;100776.63;1780871;80;21157;-70
2021/05/31 02:47:51;;;;;;;3.92;3.40;;;;;;;15.27;76.33;100776.91;1780636;80;20941;-71
2021/05/31 02:50:18;;;;;;;5.50;3.33;;;;;;;15.28;75.65;100775.09;1780318;80;21529;-71
2021/05/31 02:52:45;;;;;;;3.60;3.30;;;;;;;15.29;75.65;100772.31;1780372;80;20929;-71
2021/05/31 02:55:20;;;;;;;4.12;3.60;;;;;;;15.33;75.42;100767.16;1780492;80;20890;-72
2021/05/31 02:57:47;;;;;;;4.65;3.60;;;;;;;15.38;74.87;100767.28;1780368;80;21005;-71
2021/05/31 03:00:16;;;;;;;3.80;3.37;;;;;;;15.41;74.53;100771.86;1780309;80;20989;-72
2021/05/31 03:02:44;;;;;;;4.92;3.98;;;;;;;15.42;74.42;100768.73;1780294;80;20922;-71
2021/05/31 03:05:16;;;;;;;4.42;3.92;;;;;;;15.45;74.36;100777.27;1780206;80;20902;-70
2021/05/31 03:07:43;;;;;;;4.03;3.62;;;;;;;15.48;74.24;100782.30;1780414;80;20926;-70
2021/05/31 03:10:11;;;;;;;4.33;3.92;;;;;;;15.50;74.20;100776.42;1780381;80;21054;-70
2021/05/31 03:12:38;;;;;;;3.10;2.90;;;;;;;15.50;73.97;100784.35;1780176;80;20929;-69
2021/05/31 03:15:07;;;;;;;4.20;3.02;;;;;;;15.45;73.90;100780.37;1780413;80;21022;-69
2021/05/31 03:17:33;;;;;;;3.87;3.37;;;;;;;15.42;73.69;100771.38;1780204;80;21088;-70
2021/05/31 03:20:01;;;;;;;3.65;3.35;;;;;;;15.44;73.78;100774.73;1780331;80;20958;-70
2021/05/31 03:22:29;;;;;;;5.17;4.10;;;;;;;15.47;73.64;100778.45;1752139;80;21415;-69
2021/05/31 03:24:56;;;;;;;4.08;3.67;;;;;;;15.50;73.79;100776.91;1780312;80;20875;-70
2021/05/31 03:27:23;;;;;;;4.72;3.95;;;;;;;15.56;73.65;100781.69;1780397;80;21348;-69
2021/05/31 03:29:50;;;;;;;3.40;3.20;;;;;;;15.60;73.63;100781.81;1780295;80;20879;-71
2021/05/31 03:32:17;;;;;;;7.30;4.10;;;;;;;15.66;72.96;100786.63;1780500;80;21006;-71
2021/05/31 03:34:44;;;;;;;5.67;4.28;;;;;;;15.66;72.96;100786.63;1780453;80;21061;-72
2021/05/31 03:37:11;;;;;;;4.50;3.92;;;;;;;15.70;73.09;100784.11;1777765;80;20966;-72
2021/05/31 03:39:38;;;;;;;4.80;3.15;;;;;;;15.84;73.49;100786.17;1776006;80;20974;-72
2021/05/31 03:42:07;;;;;;;4.03;2.92;;;;;;;15.84;73.49;100786.17;1777521;80;20895;-72
2021/05/31 03:44:38;;;;;;;4.25;3.80;;;;;;;15.92;73.63;100780.63;1777832;80;20891;-72
2021/05/31 03:47:05;;;;;;;3.92;3.52;;;;;;;16.05;73.30;100778.31;1777835;79;21076;-73
2021/05/31 03:49:32;;;;;;;3.87;3.55;;;;;;;16.15;72.15;100780.58;1778306;80;20922;-69
2021/05/31 03:51:58;;;;;;;7.05;4.72;;;;;;;16.20;71.72;100781.53;1776026;80;20918;-71
2021/05/31 03:54:25;;;;;;;4.30;3.90;;;;;;;16.23;71.50;100783.92;1774833;80;21479;-72
2021/05/31 03:56:52;;;;;;;3.65;2.80;;;;;;;16.24;71.18;100779.00;1774674;80;20926;-71
2021/05/31 03:59:20;;;;;;;3.70;3.37;;;;;;;16.20;71.30;100781.53;1774467;80;20942;-71
2021/05/31 04:01:48;;;;;;;5.10;3.47;;;;;;;16.17;71.36;100778.66;1774528;80;20982;-71
2021/05/31 04:04:15;;;;;;;3.87;3.45;;;;;;;16.12;71.53;100776.39;1774581;80;20878;-72
2021/05/31 04:12:01;;;;;;;4.35;3.55;;;;;;;16.23;71.64;100779.48;1778009;80;21116;-80
2021/05/31 04:14:31;;;;;;;5.05;3.75;;;;;;;16.25;71.87;100776.23;1777559;80;20938;-77
2021/05/31 04:17:01;;;;;;;4.05;3.65;;;;;;;16.29;71.71;100774.16;1777033;80;20923;-78
2021/05/31 04:19:30;;;;;;;5.47;3.60;;;;;;;16.28;71.37;100781.27;1776665;80;20969;-76
2021/05/31 04:21:57;;;;;;;10.80;4.17;;;;;;;16.28;71.36;100779.11;1774829;80;21013;-80
2021/05/31 04:24:24;;;;;;;4.55;3.87;;;;;;;16.26;71.35;100777.91;1774756;80;21634;-78
2021/05/31 04:26:50;;;;;;;4.35;3.52;;;;;;;16.28;71.19;100781.76;1774569;80;20934;-80
2021/05/31 04:29:17;;;;;;;4.20;3.30;;;;;;;16.28;71.15;100784.41;1774585;80;20986;-78
2021/05/31 04:31:45;;;;;;;4.35;3.95;;;;;;;16.31;71.16;100790.27;1774497;80;21049;-73
2021/05/31 04:34:12;;;;;;;4.40;3.45;;;;;;;16.35;71.36;100791.70;1774637;80;20926;-70
2021/05/31 04:36:42;;;;;;;6.20;3.33;;;;;;;16.45;71.43;100789.63;1774734;80;21092;-72
2021/05/31 04:39:08;;;;;;;4.30;3.27;;;;;;;16.59;71.23;100788.02;1780188;80;20993;-70
2021/05/31 04:41:36;;;;;;;3.85;3.02;;;;;;;16.77;70.69;100792.27;1780341;80;21349;-69
2021/05/31 04:44:04;;;;;;;6.22;3.27;;;;;;;16.95;70.18;100797.38;1780144;80;20934;-71
2021/05/31 04:46:33;;;;;;;3.05;2.40;;;;;;;17.13;69.89;100804.75;1780273;80;21391;-72
2021/05/31 04:49:04;;;;;;;2.60;2.33;;;;;;;17.28;68.42;100798.64;1780253;80;21480;-70
2021/05/31 04:51:29;;;;;;;3.90;2.22;;;;;;;17.41;67.89;100799.27;1779456;80;21102;-73
2021/05/31 04:53:57;;;;;;;3.42;2.47;;;;;;;17.53;67.06;100793.37;1780153;80;21432;-74
2021/05/31 04:56:26;;;;;;;2.42;2.22;;;;;;;17.58;66.26;100793.31;1780303;80;20910;-71
2021/05/31 04:58:53;;;;;;;2.70;2.50;;;;;;;17.57;65.97;100784.19;1780190;80;20933;-73
2021/05/31 05:01:21;;;;;;;3.37;2.45;;;;;;;17.56;66.20;100787.80;1780291;80;21045;-71
2021/05/31 05:03:48;;;;;;;2.45;2.25;;;;;;;17.58;65.95;100788.51;1780246;80;21045;-72
2021/05/31 05:06:15;;;;;;;5.00;1.92;;;;;;;17.53;65.72;100788.91;1780225;80;20886;-78
2021/05/31 05:08:44;;;;;;;2.37;2.15;;;;;;;17.53;66.13;100786.25;1780242;80;21605;-71
2021/05/31 05:11:11;;;;;;;2.37;2.17;;;;;;;17.61;66.45;100793.07;1780290;80;20938;-74
2021/05/31 05:13:38;;;;;;;2.83;1.55;;;;;;;17.68;65.65;100789.89;1780160;80;21056;-77
2021/05/31 05:16:05;;;;;;;2.08;1.90;;;;;;;17.72;65.65;100783.31;1780131;80;20914;-76
2021/05/31 05:18:33;;;;;;;4.90;2.70;;;;;;;17.77;65.87;100778.47;1780583;80;20890;-80
2021/05/31 05:21:00;;;;;;;2.12;1.92;;;;;;;17.80;65.47;100788.80;1780511;80;21013;-82
2021/05/31 05:23:27;;;;;;;1.75;1.65;;;;;;;17.77;65.63;100786.42;1780259;80;20858;-80
2021/05/31 05:25:54;;;;;;;2.33;1.90;;;;;;;17.77;65.67;100797.88;1780404;80;21483;-80
2021/05/31 05:28:21;;;;;;;3.08;1.20;;;;;;;17.71;65.40;100784.30;1780145;80;20934;-81
2021/05/31 05:30:50;;;;;;;3.62;1.87;;;;;;;17.63;65.30;100787.64;1779948;80;21466;-82
2021/05/31 05:33:18;;;;;;;2.67;2.47;;;;;;;17.53;65.24;100793.37;1780196;80;21442;-80
2021/05/31 05:35:52;;;;;;;2.33;2.10;;;;;;;17.46;65.64;100793.56;1780339;80;20906;-79
2021/05/31 05:48:29;;;;;;;4.72;2.10;;;;;;;17.72;65.61;100796.12;1774395;80;21518;-80
2021/05/31 05:51:09;;;;;;;2.65;2.37;;;;;;;17.88;65.23;100790.83;1774580;80;21117;-79
2021/05/31 05:53:41;;;;;;;2.15;1.95;;;;;;;18.04;64.85;100795.61;1774335;80;20960;-81
2021/05/31 05:56:12;;;;;;;4.67;2.20;;;;;;;18.20;64.43;100798.07;1774391;80;20990;-81
2021/05/31 05:58:39;;;;;;;2.02;1.87;;;;;;;18.32;63.64;100792.64;1752312;80;20966;-77
2021/05/31 06:01:06;;;;;;;3.92;2.05;;;;;;;18.39;63.54;100796.44;1774567;80;20971;-77
2021/05/31 06:03:33;;;;;;;3.67;2.10;;;;;;;18.44;62.87;100791.55;1774464;80;21063;-79
2021/05/31 06:06:00;;;;;;;2.02;1.92;;;;;;;18.46;62.35;100794.07;1774372;80;21009;-78
2021/05/31 06:08:28;;;;;;;2.33;2.08;;;;;;;18.41;61.94;100801.96;1774424;80;21065;-76
2021/05/31 06:10:54;;;;;;;2.08;1.90;;;;;;;18.36;62.44;100792.25;1774413;80;20871;-77
2021/05/31 06:13:23;;;;;;;2.10;2.00;;;;;;;18.37;62.17;100791.76;1774508;80;20958;-77
2021/05/31 06:15:52;;;;;;;3.60;1.57;;;;;;;18.34;62.40;100786.23;1774444;80;21090;-77
2021/05/31 06:18:21;;;;;;;3.45;2.12;;;;;;;18.31;61.87;100789.64;1774347;80;20977;-77
2021/05/31 06:20:48;;;;;;;4.53;2.25;;;;;;;18.29;61.96;100796.41;1774479;80;20970;-75
2021/05/31 06:23:15;;;;;;;3.62;2.27;;;;;;;18.37;62.28;100801.05;1774466;80;20946;-78
2021/05/31 06:25:42;;;;;;;2.33;1.42;;;;;;;18.50;61.92;100806.94;1774653;80;20911;-76
2021/05/31 06:28:09;;;;;;;3.08;1.67;;;;;;;18.63;61.67;100797.33;1774526;80;21100;-76
2021/05/31 06:30:36;;;;;;;2.02;1.75;;;;;;;18.75;61.03;100797.55;1774789;80;20898;-77
2021/05/31 06:33:04;;;;;;;3.33;1.70;;;;;;;18.88;60.35;100795.97;1774679;80;20890;-78
2021/05/31 06:35:31;;;;;;;2.47;2.12;;;;;;;19.03;60.47;100798.55;1774517;80;20977;-79
2021/05/31 06:37:58;;;;;;;2.12;1.65;;;;;;;19.15;60.51;100795.72;1774431;80;20902;-78
2021/05/31 06:40:25;;;;;;;1.80;1.70;;;;;;;19.30;60.03;100794.28;1774650;80;21031;-79
2021/05/31 06:42:53;;;;;;;3.60;1.80;;;;;;;19.45;59.46;100796.83;1774438;80;20879;-76
2021/05/31 06:45:23;;;;;;;2.77;2.58;;;;;;;19.58;59.03;100788.99;1774592;80;20903;-77
2021/05/31 06:47:53;;;;;;;2.65;1.35;;;;;;;19.64;57.92;100792.41;1774503;80;20997;-77
2021/05/31 06:50:20;;;;;;;2.62;1.45;;;;;;;19.78;57.41;100786.61;1774395;80;20973;-78
2021/05/31 06:52:47;;;;;;;1.22;1.12;;;;;;;20.01;57.84;100780.41;1774493;80;21064;-78
2021/05/31 06:55:15;;;;;;;1.52;1.42;;;;;;;20.41;55.95;100780.48;1774413;80;20911;-79
2021/05/31 06:57:43;;;;;;;3.30;1.55;;;;;;;20.81;55.51;100789.00;1774628;80;20962;-78
2021/05/31 07:00:12;;;;;;;1.70;1.60;;;;;;;21.10;54.12;100779.41;1774547;80;20879;-79
2021/05/31 07:02:39;;;;;;;2.47;2.12;;;;;;;21.39;53.26;100787.08;1774483;80;20965;-78
2021/05/31 07:05:08;;;;;;;2.20;1.40;;;;;;;21.73;52.82;100787.09;1774577;80;21491;-77
2021/05/31 07:07:36;;;;;;;3.08;1.87;;;;;;;21.98;51.00;100793.02;1774395;80;20946;-78
2021/05/31 07:10:05;;;;;;;3.67;1.32;;;;;;;22.09;50.59;100789.53;1774447;80;20903;-78
2021/05/31 07:12:33;;;;;;;1.35;1.20;;;;;;;22.30;50.56;100790.97;1774457;80;20922;-78
2021/05/31 07:15:03;;;;;;;0.90;0.90;;;;;;;22.60;49.53;100786.81;1774589;80;20903;-79
2021/05/31 07:17:28;;;;;;;2.98;1.30;;;;;;;22.97;48.89;100772.92;1774390;80;21036;-78
2021/05/31 07:19:58;;;;;;;1.05;1.00;;;;;;;23.41;48.63;100777.53;1774767;80;20926;-78
2021/05/31 07:22:26;;;;;;;1.47;1.37;;;;;;;23.72;46.45;100766.38;1774581;80;20894;-78
2021/05/31 07:24:53;;;;;;;0.93;0.93;;;;;;;24.07;46.04;100767.39;1774328;80;20914;-79
2021/05/31 07:27:20;;;;;;;2.65;1.37;;;;;;;24.26;45.73;100768.80;1774488;80;21498;-78
2021/05/31 07:29:49;;;;;;;1.87;1.40;;;;;;;24.42;45.80;100768.66;1774459;80;21304;-79
2021/05/31 07:32:16;;;;;;;1.40;1.30;;;;;;;24.48;44.67;100775.17;1774416;80;21431;-78
2021/05/31 07:34:43;;;;;;;1.72;1.30;;;;;;;24.47;44.41;100777.51;1774519;80;21506;-78
2021/05/31 07:37:10;;;;;;;0.95;0.95;;;;;;;24.53;44.55;100770.95;1775477;80;21006;-78
2021/05/31 07:39:37;;;;;;;1.10;1.10;;;;;;;24.78;44.73;100780.13;1782290;80;20965;-78
2021/05/31 07:42:04;;;;;;;1.70;1.60;;;;;;;24.93;44.68;100771.61;1783991;80;21463;-79
2021/05/31 07:44:31;;;;;;;1.47;1.37;;;;;;;25.05;43.60;100772.50;1783081;78;20950;-78
2021/05/31 07:46:58;;;;;;;2.02;1.37;;;;;;;25.02;43.88;100773.19;1783099;80;20990;-79
2021/05/31 07:49:25;;;;;;;1.90;1.80;;;;;;;25.19;43.76;100767.67;1782851;80;20994;-79
2021/05/31 07:51:55;;;;;;;5.10;1.40;;;;;;;25.38;43.37;100769.81;1781086;80;20902;-78
2021/05/31 07:54:27;;;;;;;1.92;1.25;;;;;;;25.43;42.16;100770.11;1780193;80;21918;-79
2021/05/31 07:56:51;;;;;;;1.25;1.15;;;;;;;25.37;42.33;100776.22;1779376;80;20886;-77
2021/05/31 07:59:18;;;;;;;1.22;1.10;;;;;;;25.56;42.74;100780.69;1780215;80;20990;-79
2021/05/31 08:01:45;;;;;;;0.80;0.80;;;;;;;25.62;42.09;100771.38;1780235;80;21415;-77
2021/05/31 08:04:12;;;;;;;1.15;1.00;;;;;;;25.59;41.47;100781.16;1780344;80;20922;-78
2021/05/31 08:06:39;;;;;;;1.98;1.10;;;;;;;25.54;41.30;100788.09;1780238;80;21034;-77
2021/05/31 08:09:08;;;;;;;1.47;1.37;;;;;;;25.47;41.82;100781.30;1780601;80;21029;-79
2021/05/31 08:11:35;;;;;;;2.55;1.20;;;;;;;25.37;41.38;100775.39;1780408;80;20891;-77
2021/05/31 08:14:02;;;;;;;0.93;0.93;;;;;;;25.18;41.08;100772.70;1780249;80;20945;-74
2021/05/31 08:16:31;;;;;;;2.40;0.90;;;;;;;25.08;41.95;100776.15;1780202;80;20958;-76
2021/05/31 08:19:02;;;;;;;1.27;1.10;;;;;;;25.03;41.64;100783.41;1780133;80;20976;-76
2021/05/31 08:21:29;;;;;;;1.20;1.20;;;;;;;24.94;41.67;100776.45;1780211;80;21009;-76
2021/05/31 08:23:55;;;;;;;3.05;0.98;;;;;;;24.87;42.66;100782.23;1780213;80;20887;-75
2021/05/31 08:26:22;;;;;;;2.30;2.08;;;;;;;24.80;42.43;100765.52;1780280;80;20902;-77
2021/05/31 08:28:50;;;;;;;2.90;2.58;;;;;;;24.87;42.55;100769.65;1780280;80;20942;-79
2021/05/31 08:31:17;;;;;;;2.80;2.60;;;;;;;24.97;42.66;100761.36;1780277;80;21451;-76
2021/05/31 08:33:44;;;;;;;4.92;2.92;;;;;;;25.11;42.44;100761.05;1780226;80;20910;-76
2021/05/31 08:36:11;;;;;;;1.77;1.67;;;;;;;25.25;41.61;100754.86;1780269;80;20994;-77
2021/05/31 08:38:38;;;;;;;2.58;1.67;;;;;;;25.35;41.58;100765.34;1778477;80;20970;-77
2021/05/31 08:41:06;;;;;;;1.60;1.50;;;;;;;25.37;41.21;100762.79;1774393;80;21418;-75
2021/05/31 08:43:33;;;;;;;2.90;1.37;;;;;;;25.30;42.09;100764.56;1774457;80;21507;-75
2021/05/31 08:46:00;;;;;;;1.20;1.20;;;;;;;25.30;41.25;100761.02;1774397;80;20977;-77
2021/05/31 08:48:28;;;;;;;2.40;1.47;;;;;;;25.36;41.87;100757.59;1774149;80;20985;-75
2021/05/31 08:50:55;;;;;;;2.52;1.35;;;;;;;25.48;42.53;100757.47;1774362;80;21352;-73
2021/05/31 08:53:21;;;;;;;5.35;1.50;;;;;;;25.59;41.84;100756.13;1774432;80;20951;-79
2021/05/31 08:55:49;;;;;;;3.52;2.05;;;;;;;25.55;41.09;100757.55;1774517;80;21013;-77
2021/05/31 08:58:17;;;;;;;2.60;1.27;;;;;;;25.46;41.39;100764.88;1774338;80;20930;-75
2021/05/31 09:00:45;;;;;;;1.45;1.35;;;;;;;25.41;41.26;100756.52;1774581;80;21407;-77
2021/05/31 09:03:11;;;;;;;1.45;1.05;;;;;;;25.48;41.83;100760.64;1774465;80;20910;-75
2021/05/31 09:05:43;;;;;;;2.47;1.30;;;;;;;25.47;41.63;100756.30;1774472;80;20993;-75
2021/05/31 09:08:16;;;;;;;1.60;1.00;;;;;;;25.48;40.58;100756.13;1774421;80;21599;-74
2021/05/31 09:10:48;;;;;;;1.25;1.05;;;;;;;25.38;41.11;100754.22;1774356;80;20898;-72
2021/05/31 09:13:39;;;;;;;2.12;1.10;;;;;;;25.46;41.64;100744.73;1774311;80;20926;-71
2021/05/31 09:16:20;;;;;;;1.47;1.37;;;;;;;25.61;40.95;100748.23;1774205;80;20950;-73
2021/05/31 09:19:05;;;;;;;3.62;1.57;;;;;;;25.67;41.81;100750.66;1774652;80;20970;-72
2021/05/31 09:21:39;;;;;;;1.90;1.70;;;;;;;25.90;40.76;100745.20;1774379;80;21813;-71
2021/05/31 09:24:18;;;;;;;1.50;1.40;;;;;;;26.14;40.70;100749.88;1774337;80;21400;-73
2021/05/31 09:26:59;;;;;;;2.25;1.75;;;;;;;26.29;40.81;100747.97;1774209;80;20951;-73
2021/05/31 09:29:26;;;;;;;;;;;;;;;26.35;40.04;100741.00;1777110;80;20915;-74
2021/05/31 09:32:06;;;;;;;1.37;1.22;;;;;;;26.36;40.63;100747.51;1774416;80;20155;-72
2021/05/31 09:34:34;;;;;;;1.20;1.20;;;;;;;26.44;40.30;100746.56;1774443;80;21137;-71
2021/05/31 09:37:03;;;;;;;2.67;1.35;;;;;;;26.64;39.58;100742.73;1774520;80;20930;-72
2021/05/31 09:39:35;;;;;;;1.37;0.90;;;;;;;26.74;38.92;100739.17;1778479;80;20973;-71
2021/05/31 09:42:16;;;;;;;3.25;1.47;;;;;;;26.82;39.59;100735.52;1783084;80;20902;-71
2021/05/31 09:44:47;;;;;;;3.60;1.35;;;;;;;26.92;39.06;100734.63;1782933;80;20925;-71
2021/05/31 09:47:14;;;;;;;1.42;1.32;;;;;;;26.97;38.61;100736.24;1782967;80;21847;-71
2021/05/31 09:49:41;;;;;;;5.47;1.42;;;;;;;26.87;38.72;100732.53;1782897;80;20974;-68
2021/05/31 09:52:10;;;;;;;2.33;1.15;;;;;;;26.84;39.11;100736.16;1782962;80;20934;-72
2021/05/31 09:54:42;;;;;;;7.97;1.10;;;;;;;26.90;38.84;100727.27;1782917;80;20890;-70
2021/05/31 09:57:22;;;;;;;1.87;1.30;;;;;;;27.00;39.32;100730.97;1783053;80;20969;-71
2021/05/31 09:59:57;;;;;;;2.20;1.22;;;;;;;27.17;38.87;100729.64;1783092;80;21735;-70
2021/05/31 10:05:36;;;;;;;2.08;1.05;;;;;;;27.61;36.14;100724.36;1783048;80;21034;-70
2021/05/31 10:08:05;;;;;;;0.72;0.72;;;;;;;27.53;37.00;100718.34;1781392;80;20942;-69
2021/05/31 10:10:28;;;;;;;2.57;1.27;;;;;;;27.64;36.58;100719.92;1782742;80;21001;-70
2021/05/31 10:12:58;;;;;;;2.25;1.07;;;;;;;27.67;37.03;100719.52;1783023;80;21376;-70
2021/05/31 10:15:30;;;;;;;1.20;1.02;;;;;;;27.63;37.50;100721.47;1782987;80;20918;-72
2021/05/31 10:17:59;;;;;;;2.25;0.93;;;;;;;27.58;37.16;100718.03;1783416;80;20902;-78
2021/05/31 10:20:29;;;;;;;2.50;1.05;;;;;;;27.35;36.79;100718.89;1782942;80;21415;-72
2021/05/31 10:22:57;;;;;;;4.58;1.10;;;;;;;27.15;36.51;100712.84;1783165;80;20910;-72
2021/05/31 10:25:26;;;;;;;1.52;1.30;;;;;;;27.08;37.30;100709.30;1783113;80;21625;-71
2021/05/31 10:27:56;;;;;;;3.47;1.10;;;;;;;27.04;37.22;100708.02;1754350;80;20898;-72
2021/05/31 10:30:24;;;;;;;3.27;1.25;;;;;;;27.05;37.53;100706.98;1782744;80;20934;-70
2021/05/31 10:32:56;;;;;;;1.35;1.02;;;;;;;27.15;37.25;100703.94;1783102;80;21478;-71
2021/05/31 10:35:26;;;;;;;1.00;1.00;;;;;;;27.03;36.57;100705.00;1783295;80;21395;-68
2021/05/31 10:37:56;;;;;;;2.02;1.30;;;;;;;26.80;36.64;100702.58;1783154;80;21514;-70
2021/05/31 10:40:36;;;;;;;2.00;0.80;;;;;;;26.61;37.69;100698.22;1776753;80;20934;-70
2021/05/31 10:43:07;;;;;;;3.12;0.90;;;;;;;26.54;37.43;100701.31;1774689;80;20867;-71
2021/05/31 10:45:35;;;;;;;3.55;1.15;;;;;;;26.38;37.13;100698.92;1774461;80;20942;-70
2021/05/31 10:48:18;;;;;;;8.53;1.25;;;;;;;26.36;38.46;100705.00;1774727;80;21006;-69
2021/05/31 10:50:59;;;;;;;0.70;0.70;;;;;;;26.61;38.50;100695.53;1774517;80;20947;-68
2021/05/31 10:53:33;;;;;;;1.75;0.80;;;;;;;26.90;37.60;100688.77;1774575;80;20878;-69
2021/05/31 10:56:05;;;;;;;;;;;;;;;27.26;37.40;100686.73;1777277;80;20985;-69
2021/05/31 10:58:47;;;;;;;2.95;1.15;;;;;;;27.49;36.60;100690.96;1774544;80;20163;-70
2021/05/31 11:04:23;;;;;;;2.40;0.78;;;;;;;27.76;36.41;100687.00;1774611;80;21174;-68
2021/05/31 11:06:55;;;;;;;4.08;0.95;;;;;;;27.75;35.81;100686.67;1774483;80;20962;-69
2021/05/31 11:09:30;;;;;;;1.30;0.70;;;;;;;27.60;34.61;100678.77;1774731;80;20922;-67
2021/05/31 11:12:05;;;;;;;3.55;0.80;;;;;;;27.32;35.12;100680.22;1774449;80;21451;-68
2021/05/31 11:14:42;;;;;;;3.12;0.75;;;;;;;27.14;36.19;100681.55;1773973;80;20934;-68
2021/05/31 11:17:16;;;;;;;0.85;0.68;;;;;;;26.94;36.59;100687.34;1773776;80;21122;-68
2021/05/31 11:19:47;;;;;;;0.95;0.80;;;;;;;26.60;36.43;100683.61;1774359;80;20926;-68
2021/05/31 11:22:30;;;;;;;0.95;0.70;;;;;;;26.24;37.55;100677.30;1774480;80;20911;-64
2021/05/31 11:25:05;;;;;;;;;;;;;;;26.02;37.47;100689.09;1777405;80;21440;-69
2021/05/31 11:27:37;;;;;;;8.03;0.95;;;;;;;25.72;38.33;100681.59;1774924;80;20163;-68
2021/05/31 11:30:09;;;;;;;1.47;0.70;;;;;;;25.46;38.92;100680.29;1774970;80;20973;-69
2021/05/31 11:32:36;;;;;;;1.75;0.80;;;;;;;25.18;39.86;100680.10;1775811;80;20891;-67
2021/05/31 11:35:06;;;;;;;2.35;0.80;;;;;;;24.97;39.69;100687.57;1776291;80;20879;-69
2021/05/31 11:37:33;;;;;;;2.40;0.62;;;;;;;24.74;40.55;100684.42;1776629;80;21368;-68
2021/05/31 11:40:01;;;;;;;2.55;0.70;;;;;;;24.44;40.82;100678.69;1777427;80;20978;-69
2021/05/31 11:42:28;;;;;;;0.78;0.70;;;;;;;24.18;41.65;100682.05;1780271;80;21068;-69
2021/05/31 11:44:58;;;;;;;1.82;0.78;;;;;;;24.06;41.97;100681.34;1780346;80;20902;-69
2021/05/31 11:47:30;;;;;;;0.75;0.40;;;;;;;23.89;42.22;100665.36;1780341;80;20894;-71
2021/05/31 11:49:59;;;;;;;1.50;0.70;;;;;;;23.73;42.53;100674.31;1780199;80;20934;-71
2021/05/31 11:52:27;;;;;;;4.28;0.57;;;;;;;23.65;43.06;100673.01;1780295;80;20943;-69
2021/05/31 11:54:54;;;;;;;1.65;0.75;;;;;;;23.59;43.48;100667.05;1780264;80;21146;-71
2021/05/31 11:57:21;;;;;;;1.27;0.70;;;;;;;23.56;43.75;100666.04;1780186;80;21100;-69
2021/05/31 11:59:53;;;;;;;1.37;0.72;;;;;;;23.51;43.31;100669.25;1780319;80;20919;-71